Time;durP1;ratioP1;P1;durP2;ratioP2;P2;SDS_P1;SDS_P2;PMS_P1;PMS_P2;Temp;Humidity;BMP_temperature;BMP_pressure;BME280_temperature;BME280_humidity;BME280_pressure;Samples;Min_cycle;Max_cycle;Signal;HPM_P1;HPM_P2
2022/11/17 00:00:45;;;;;;;14.70;2.40;;;;;;;18.26;nan;101336.25;6054131;23;20452;-91
2022/11/17 00:03:14;;;;;;;12.67;2.47;;;;;;;18.22;nan;101326.72;6054782;23;20461;-91
2022/11/17 00:05:43;;;;;;;10.20;1.90;;;;;;;18.19;nan;101328.00;6078374;23;20736;-92
2022/11/17 00:08:13;;;;;;;7.17;1.70;;;;;;;18.22;nan;101337.78;6078028;23;20418;-91
2022/11/17 00:10:41;;;;;;;18.53;3.00;;;;;;;18.24;nan;101339.25;6127224;23;20870;-91
2022/11/17 00:15:57;;;;;;;12.77;3.17;;;;;;;18.29;nan;101335.75;6105152;23;20406;-92
2022/11/17 00:21:22;;;;;;;12.07;2.57;;;;;;;18.31;nan;101330.84;6106374;23;20861;-91
2022/11/17 00:23:56;;;;;;;16.10;2.40;;;;;;;18.28;nan;101318.31;6082165;23;20406;-91
2022/11/17 00:26:32;;;;;;;13.40;2.40;;;;;;;18.27;nan;101321.34;6078522;23;20494;-92
2022/11/17 00:29:04;;;;;;;12.10;2.27;;;;;;;18.28;nan;101325.78;6079284;23;20481;-91
2022/11/17 00:34:21;;;;;;;7.80;2.00;;;;;;;18.32;nan;101327.00;6105356;23;20418;-91
2022/11/17 00:36:51;;;;;;;6.47;1.10;;;;;;;18.32;nan;101317.84;6101348;23;20461;-91
2022/11/17 00:39:22;;;;;;;5.97;1.10;;;;;;;18.29;nan;101310.84;6054345;23;20510;-92
2022/11/17 00:41:51;;;;;;;8.10;2.00;;;;;;;18.27;nan;101293.66;6054290;23;20472;-91
2022/11/17 00:44:19;;;;;;;6.03;1.47;;;;;;;18.26;nan;101292.81;6053475;23;20417;-91
2022/11/17 00:46:48;;;;;;;13.90;1.53;;;;;;;18.24;nan;101292.19;6077840;23;20409;-91
2022/11/17 00:49:15;;;;;;;4.17;1.00;;;;;;;18.21;nan;101295.44;6054229;23;20417;-92
2022/11/17 00:51:45;;;;;;;6.33;2.10;;;;;;;18.21;nan;101294.59;6054055;23;20403;-92
2022/11/17 00:54:15;;;;;;;5.40;1.00;;;;;;;18.20;nan;101293.72;6078280;23;20495;-92
2022/11/17 00:56:45;;;;;;;10.47;1.57;;;;;;;18.23;nan;101292.44;6054589;23;20490;-91
2022/11/17 00:59:18;;;;;;;7.70;2.03;;;;;;;18.23;nan;101286.91;6055475;23;20974;-92
2022/11/17 01:01:49;;;;;;;5.90;1.27;;;;;;;18.21;nan;101295.44;6077752;23;20421;-91
2022/11/17 01:04:17;;;;;;;6.87;1.53;;;;;;;18.23;nan;101292.44;6054245;23;20480;-92
2022/11/17 01:06:47;;;;;;;15.30;2.67;;;;;;;18.24;nan;101294.97;6076846;23;20979;-92
2022/11/17 01:09:20;;;;;;;13.67;1.93;;;;;;;18.16;nan;101280.59;5913515;24;20953;-92
2022/11/17 01:11:48;;;;;;;7.03;1.37;;;;;;;18.23;nan;101297.97;5924567;24;20418;-92
2022/11/17 01:14:21;;;;;;;12.90;2.60;;;;;;;18.23;nan;101293.28;5935243;24;20426;-92
2022/11/17 01:16:51;;;;;;;14.53;2.60;;;;;;;18.25;nan;101295.81;5936448;24;20485;-92
2022/11/17 01:19:20;;;;;;;12.73;2.30;;;;;;;18.26;nan;101291.97;5935827;24;20597;-92
2022/11/17 01:21:50;;;;;;;12.87;1.77;;;;;;;18.26;nan;101291.97;5925007;24;20735;-91
2022/11/17 01:24:20;;;;;;;10.37;1.97;;;;;;;18.26;nan;101281.75;5935579;24;20411;-92
2022/11/17 01:26:50;;;;;;;6.70;1.13;;;;;;;18.24;nan;101272.00;5935419;24;20485;-92
2022/11/17 01:29:24;;;;;;;8.50;1.57;;;;;;;18.23;nan;101275.84;5937117;24;20579;-91
2022/11/17 01:32:02;;;;;;;6.73;1.10;;;;;;;18.18;nan;101265.44;5935713;24;20482;-92
2022/11/17 01:34:38;;;;;;;11.43;1.37;;;;;;;18.15;nan;101265.91;6065185;23;20489;-92
2022/11/17 01:37:18;;;;;;;10.00;1.23;;;;;;;18.16;nan;101269.50;6070174;23;20438;-92
2022/11/17 01:39:47;;;;;;;7.00;0.77;;;;;;;18.09;nan;101260.47;6029975;23;20454;-91
2022/11/17 01:42:21;;;;;;;8.63;1.10;;;;;;;18.08;nan;101272.63;6025690;23;20855;-92
2022/11/17 01:45:11;;;;;;;6.83;1.23;;;;;;;18.09;nan;101275.13;6026206;23;20488;-92
2022/11/17 01:47:52;;;;;;;12.03;1.53;;;;;;;18.08;nan;101267.06;6052650;23;20893;-92
2022/11/17 01:50:38;;;;;;;10.00;1.77;;;;;;;18.05;nan;101267.53;6073871;23;20485;-92
2022/11/17 01:53:15;;;;;;;8.97;1.07;;;;;;;18.09;nan;101271.53;6050734;23;20402;-91
2022/11/17 01:55:50;;;;;;;9.87;2.10;;;;;;;18.02;nan;101262.47;6027352;23;20905;-92
2022/11/17 01:58:28;;;;;;;10.50;1.70;;;;;;;18.10;nan;101264.91;6027196;23;20482;-91
2022/11/17 02:00:58;;;;;;;11.93;2.50;;;;;;;18.12;nan;101259.97;6050804;23;20581;-92
2022/11/17 02:03:28;;;;;;;10.20;2.40;;;;;;;18.11;nan;101255.53;6027271;23;20410;-92
2022/11/17 02:06:11;;;;;;;11.33;2.37;;;;;;;18.14;nan;101264.22;6050668;23;20501;-92
2022/11/17 02:08:39;;;;;;;15.53;3.03;;;;;;;18.13;nan;101267.22;6050851;23;20482;-92
2022/11/17 02:11:13;;;;;;;15.87;2.10;;;;;;;18.13;nan;101269.97;6027533;23;20410;-92
2022/11/17 02:13:45;;;;;;;14.90;1.77;;;;;;;18.13;nan;101264.44;6051826;23;20414;-92
2022/11/17 02:16:13;;;;;;;13.80;3.90;;;;;;;18.04;nan;101257.53;6050126;23;20419;-92
2022/11/17 02:18:56;;;;;;;13.23;2.50;;;;;;;18.09;nan;101257.69;6026882;23;20422;-92
2022/11/17 02:21:46;;;;;;;12.07;2.50;;;;;;;18.12;nan;101274.66;6050395;23;20948;-92
2022/11/17 02:24:46;;;;;;;14.63;2.50;;;;;;;18.11;nan;101272.13;6074456;23;20411;-91
2022/11/17 02:27:38;;;;;;;8.93;1.93;;;;;;;18.12;nan;101279.34;5959120;24;20427;-92
2022/11/17 02:30:12;;;;;;;17.47;3.00;;;;;;;18.14;nan;101285.50;5995735;23;20422;-92
2022/11/17 02:32:52;;;;;;;25.97;3.97;;;;;;;18.13;nan;101289.34;6049709;23;20418;-91
2022/11/17 02:35:42;;;;;;;13.37;2.67;;;;;;;18.11;nan;101294.25;6049601;23;20493;-92
2022/11/17 02:38:28;;;;;;;17.07;1.90;;;;;;;18.09;nan;101290.91;6049913;23;20439;-92
2022/11/17 02:41:17;;;;;;;4.20;1.17;;;;;;;18.09;nan;101285.38;6052059;23;20458;-92
2022/11/17 02:44:14;;;;;;;5.60;0.97;;;;;;;18.04;nan;101283.28;6027171;23;20442;-92
2022/11/17 02:47:17;;;;;;;5.27;1.00;;;;;;;17.99;nan;101279.50;6053981;23;20893;-92
2022/11/17 02:50:04;;;;;;;6.60;1.20;;;;;;;17.93;nan;101271.03;6037913;23;20494;-92
2022/11/17 02:52:33;;;;;;;7.57;1.20;;;;;;;17.90;nan;101271.50;6028844;23;20458;-91
2022/11/17 02:55:01;;;;;;;5.07;0.90;;;;;;;17.91;nan;101266.81;6034177;23;20453;-91
2022/11/17 02:57:38;;;;;;;7.27;1.43;;;;;;;17.91;nan;101262.13;6032565;23;20414;-92
2022/11/17 03:00:14;;;;;;;3.10;0.77;;;;;;;17.86;nan;101266.69;6050238;23;20442;-92
2022/11/17 03:06:07;;;;;;;4.60;1.10;;;;;;;17.84;nan;101266.91;6098385;23;20403;-92
2022/11/17 03:08:53;;;;;;;7.50;0.87;;;;;;;17.78;nan;101259.50;6049616;23;20490;-91
2022/11/17 03:11:25;;;;;;;5.60;1.00;;;;;;;17.76;nan;101260.81;6050125;23;20414;-91
2022/11/17 03:14:15;;;;;;;4.93;0.80;;;;;;;17.70;nan;101265.34;6026888;23;20403;-92
2022/11/17 03:17:06;;;;;;;12.53;1.30;;;;;;;17.69;nan;101252.59;6027917;23;20399;-92
2022/11/17 03:19:40;;;;;;;9.90;1.33;;;;;;;17.67;nan;101254.75;6026405;23;20407;-91
2022/11/17 03:22:24;;;;;;;14.27;2.23;;;;;;;17.71;nan;101261.50;6027428;23;20499;-92
2022/11/17 03:24:59;;;;;;;8.83;1.40;;;;;;;17.70;nan;101248.78;6026858;23;20461;-92
2022/11/17 03:27:34;;;;;;;10.30;2.30;;;;;;;17.73;nan;101251.06;6049836;23;20410;-92
2022/11/17 03:30:07;;;;;;;20.43;3.03;;;;;;;17.77;nan;101255.06;6027480;23;20410;-93
2022/11/17 03:32:41;;;;;;;24.53;2.97;;;;;;;17.78;nan;101244.84;6049982;23;20403;-92
2022/11/17 03:35:23;;;;;;;12.70;2.30;;;;;;;17.78;nan;101245.69;6049092;23;20422;-92
2022/11/17 03:37:54;;;;;;;17.67;3.00;;;;;;;17.77;nan;101238.47;6042979;23;20436;-92
2022/11/17 03:40:27;;;;;;;14.60;3.00;;;;;;;17.81;nan;101245.25;6054804;23;20445;-92
2022/11/17 03:42:57;;;;;;;18.87;3.23;;;;;;;17.80;nan;101234.41;6056096;23;20916;-91
2022/11/17 03:45:32;;;;;;;15.60;3.77;;;;;;;17.76;nan;101235.94;6054680;23;20405;-93
2022/11/17 03:48:11;;;;;;;23.60;4.40;;;;;;;17.76;nan;101241.47;6055528;23;20409;-92
2022/11/17 03:51:09;;;;;;;17.50;3.23;;;;;;;17.72;nan;101243.84;6056298;23;20390;-92
2022/11/17 03:53:37;;;;;;;18.93;2.30;;;;;;;17.63;nan;101233.28;6010094;23;20405;-92
2022/11/17 03:56:22;;;;;;;11.43;2.60;;;;;;;17.60;nan;101237.34;5964074;23;20487;-92
2022/11/17 03:59:00;;;;;;;21.53;3.10;;;;;;;17.55;nan;101237.16;5986491;23;20428;-92
2022/11/17 04:01:30;;;;;;;15.63;3.10;;;;;;;17.51;nan;101238.72;5963821;23;20453;-91
2022/11/17 04:03:59;;;;;;;13.97;2.50;;;;;;;17.50;nan;101239.81;5964150;23;20557;-92
2022/11/17 04:06:27;;;;;;;16.23;3.17;;;;;;;17.51;nan;101241.50;5963065;23;20780;-91
2022/11/17 04:08:54;;;;;;;12.70;2.70;;;;;;;17.48;nan;101234.50;5985827;23;20954;-91
2022/11/17 04:17:10;;;;;;;16.00;3.23;;;;;;;17.49;nan;101246.41;6086247;23;20398;-92
2022/11/17 04:19:38;;;;;;;21.40;2.50;;;;;;;17.47;nan;101243.00;6054210;23;20406;-91
2022/11/17 04:22:10;;;;;;;16.87;3.23;;;;;;;17.36;nan;101222.47;6055861;23;20424;-92
2022/11/17 04:24:41;;;;;;;16.77;3.43;;;;;;;17.45;nan;101229.41;6077702;23;20421;-92
2022/11/17 04:30:04;;;;;;;22.87;2.80;;;;;;;17.48;nan;101231.72;6105807;23;20405;-90
2022/11/17 04:32:32;;;;;;;18.00;2.50;;;;;;;17.54;nan;101233.56;6056071;23;20413;-92
2022/11/17 04:34:59;;;;;;;27.83;3.20;;;;;;;17.61;nan;101237.13;6056581;23;20405;-91
2022/11/17 04:37:28;;;;;;;13.93;2.40;;;;;;;17.65;nan;101237.53;6050651;23;20442;-92
2022/11/17 04:39:59;;;;;;;21.10;2.80;;;;;;;17.67;nan;101238.16;6025372;23;20470;-92
2022/11/17 04:42:32;;;;;;;18.73;3.10;;;;;;;17.71;nan;101235.75;6051848;23;20548;-93
2022/11/17 04:45:06;;;;;;;15.30;2.53;;;;;;;17.73;nan;101240.00;6048808;23;20403;-90
2022/11/17 04:47:34;;;;;;;12.77;2.60;;;;;;;17.71;nan;101236.59;6073098;23;20893;-90
2022/11/17 04:50:02;;;;;;;15.97;3.03;;;;;;;17.77;nan;101243.16;6025791;23;20406;-90
2022/11/17 04:52:30;;;;;;;20.27;3.67;;;;;;;17.77;nan;101241.22;6049527;23;20395;-90
2022/11/17 04:54:59;;;;;;;18.73;3.40;;;;;;;17.80;nan;101242.69;6025949;23;20724;-90
2022/11/17 04:57:27;;;;;;;19.97;3.70;;;;;;;17.81;nan;101238.88;6026120;23;20498;-90
2022/11/17 04:59:55;;;;;;;14.80;2.77;;;;;;;17.75;nan;101234.25;6025317;23;20423;-90
2022/11/17 05:02:24;;;;;;;27.10;3.63;;;;;;;17.78;nan;101240.16;6025379;23;20410;-90
2022/11/17 05:04:55;;;;;;;18.63;2.53;;;;;;;17.77;nan;101237.63;6026118;23;20539;-90
2022/11/17 05:07:24;;;;;;;15.37;2.50;;;;;;;17.75;nan;101239.78;6027364;23;20902;-90
2022/11/17 05:09:53;;;;;;;20.90;2.20;;;;;;;17.74;nan;101244.44;6073565;23;20415;-90
2022/11/17 05:15:10;;;;;;;9.50;1.90;;;;;;;17.69;nan;101244.31;6057037;23;20414;-90
2022/11/17 05:17:39;;;;;;;13.97;2.30;;;;;;;17.66;nan;101242.00;6026139;23;20402;-90
2022/11/17 05:20:09;;;;;;;11.83;2.13;;;;;;;17.55;nan;101234.41;6026429;23;20403;-90
2022/11/17 05:25:27;;;;;;;21.13;1.97;;;;;;;17.59;nan;101255.00;6058187;23;20398;-90
2022/11/17 05:27:57;;;;;;;11.50;2.07;;;;;;;17.56;nan;101247.16;6050332;23;20425;-90
2022/11/17 05:30:27;;;;;;;13.60;2.03;;;;;;;17.52;nan;101241.22;5937621;24;20425;-89
2022/11/17 05:33:04;;;;;;;22.27;2.83;;;;;;;17.47;nan;101235.56;5914389;24;20422;-90
2022/11/17 05:35:32;;;;;;;14.50;1.93;;;;;;;17.54;nan;101238.25;5981990;24;20426;-89
2022/11/17 05:38:02;;;;;;;15.53;1.90;;;;;;;17.52;nan;101240.38;5943139;24;20439;-90
2022/11/17 05:40:40;;;;;;;13.57;2.57;;;;;;;17.54;nan;101254.84;5932416;24;20439;-90
2022/11/17 05:43:09;;;;;;;13.83;2.90;;;;;;;17.50;nan;101253.63;5952724;24;20426;-90
2022/11/17 05:45:37;;;;;;;14.77;2.00;;;;;;;17.50;nan;101239.81;5993687;23;20411;-90
2022/11/17 05:48:05;;;;;;;16.10;3.80;;;;;;;17.46;nan;101228.34;6027082;23;20493;-90
2022/11/17 05:50:40;;;;;;;13.77;3.57;;;;;;;17.53;nan;101236.56;6027031;23;20418;-90
2022/11/17 05:53:09;;;;;;;14.23;3.37;;;;;;;17.55;nan;101243.56;6026701;23;20429;-90
2022/11/17 05:55:40;;;;;;;12.03;2.60;;;;;;;17.54;nan;101238.25;6027745;23;20546;-89
2022/11/17 05:58:14;;;;;;;22.17;5.80;;;;;;;17.50;nan;101237.88;6074316;23;20478;-90
2022/11/17 06:00:51;;;;;;;12.00;3.27;;;;;;;17.45;nan;101232.19;6027913;23;20775;-90
2022/11/17 06:03:33;;;;;;;15.43;3.40;;;;;;;17.42;nan;101234.53;6051339;23;20395;-90
2022/11/17 06:06:02;;;;;;;12.57;3.57;;;;;;;17.42;nan;101237.31;6027481;23;20403;-89
2022/11/17 06:08:32;;;;;;;15.23;3.60;;;;;;;17.40;nan;101242.22;6026701;23;20426;-90
2022/11/17 06:11:06;;;;;;;22.80;9.60;;;;;;;17.42;nan;101238.16;6074389;23;20403;-90
2022/11/17 06:13:35;;;;;;;14.23;5.77;;;;;;;17.43;nan;101247.28;6050793;23;20483;-90
2022/11/17 06:16:06;;;;;;;19.70;5.77;;;;;;;17.43;nan;101242.63;6027218;23;20418;-89
2022/11/17 06:18:44;;;;;;;23.03;13.20;;;;;;;17.40;nan;101237.53;6029125;23;20477;-89
2022/11/17 06:21:15;;;;;;;16.50;7.77;;;;;;;17.43;nan;101245.38;6026601;23;20450;-89
2022/11/17 06:23:43;;;;;;;20.90;9.90;;;;;;;17.48;nan;101253.00;6049899;23;20410;-89
2022/11/17 06:26:11;;;;;;;15.30;4.50;;;;;;;17.50;nan;101253.63;6050588;23;20498;-90
2022/11/17 06:28:42;;;;;;;22.47;3.57;;;;;;;17.51;nan;101249.78;6054750;23;20406;-91
2022/11/17 06:31:16;;;;;;;22.10;3.60;;;;;;;17.53;nan;101259.50;6064178;23;20399;-89
2022/11/17 06:33:53;;;;;;;11.83;2.00;;;;;;;17.59;nan;101266.06;6056142;23;20412;-90
2022/11/17 06:36:25;;;;;;;15.70;3.00;;;;;;;17.60;nan;101260.31;6050565;23;20456;-89
2022/11/17 06:38:54;;;;;;;11.00;2.20;;;;;;;17.62;nan;101254.56;6127005;23;20513;-91
2022/11/17 06:41:23;;;;;;;10.23;2.17;;;;;;;17.63;nan;101260.94;6055296;23;20517;-91
2022/11/17 06:43:52;;;;;;;19.63;3.17;;;;;;;17.65;nan;101261.56;6055456;23;20465;-90
2022/11/17 06:46:20;;;;;;;22.50;3.70;;;;;;;17.70;nan;101279.19;6055541;23;20394;-90
2022/11/17 06:48:48;;;;;;;15.80;3.33;;;;;;;17.70;nan;101273.66;6055415;23;20514;-90
2022/11/17 06:51:17;;;;;;;19.27;2.57;;;;;;;17.68;nan;101278.56;6084062;23;20476;-90
2022/11/17 06:53:48;;;;;;;13.30;3.00;;;;;;;17.74;nan;101272.09;6107389;23;20821;-89
2022/11/17 06:56:20;;;;;;;16.60;2.90;;;;;;;17.77;nan;101274.41;6106936;23;20896;-89
2022/11/17 06:58:50;;;;;;;10.17;2.10;;;;;;;17.78;nan;101278.03;6132168;23;20433;-88
2022/11/17 07:01:18;;;;;;;23.43;2.97;;;;;;;17.79;nan;101274.19;6108246;23;20440;-89
2022/11/17 07:03:46;;;;;;;14.97;3.17;;;;;;;17.78;nan;101272.50;6083896;23;20413;-89
2022/11/17 07:06:17;;;;;;;12.83;1.93;;;;;;;17.82;nan;101280.13;6083431;23;20446;-89
2022/11/17 07:08:45;;;;;;;13.80;2.40;;;;;;;17.79;nan;101280.56;6106556;23;20420;-90
2022/11/17 07:11:15;;;;;;;21.27;2.70;;;;;;;17.71;nan;101261.50;6084105;23;20480;-89
2022/11/17 07:13:45;;;;;;;14.27;3.47;;;;;;;17.79;nan;101275.03;6108165;23;20476;-90
2022/11/17 07:16:16;;;;;;;17.20;3.60;;;;;;;17.79;nan;101272.28;6084049;23;20488;-89
2022/11/17 07:18:49;;;;;;;20.27;3.10;;;;;;;17.86;nan;101286.03;6087348;23;20489;-89
2022/11/17 07:21:21;;;;;;;18.83;3.20;;;;;;;17.90;nan;101290.00;6083077;23;20760;-90
2022/11/17 07:24:02;;;;;;;22.93;3.20;;;;;;;17.87;nan;101280.28;6109137;23;20396;-90
2022/11/17 07:26:30;;;;;;;23.23;3.60;;;;;;;17.92;nan;101290.63;6132110;23;20435;-90
2022/11/17 07:29:07;;;;;;;15.73;2.60;;;;;;;17.87;nan;101277.50;6107918;23;20489;-89
2022/11/17 07:31:37;;;;;;;27.60;3.50;;;;;;;18.02;nan;101295.66;6107935;23;20532;-90
2022/11/17 07:34:05;;;;;;;18.57;2.57;;;;;;;18.00;nan;101286.72;6084549;23;20404;-91
2022/11/17 07:36:35;;;;;;;21.43;3.50;;;;;;;17.98;nan;101277.81;6082890;23;20405;-91
2022/11/17 07:39:04;;;;;;;17.60;3.40;;;;;;;18.11;nan;101300.63;6072749;23;20410;-91
2022/11/17 07:41:32;;;;;;;15.23;3.03;;;;;;;18.15;nan;101296.34;6050191;23;20430;-90
2022/11/17 07:44:01;;;;;;;21.10;4.00;;;;;;;18.19;nan;101308.66;6026686;23;20476;-90
2022/11/17 07:46:30;;;;;;;23.10;3.90;;;;;;;18.21;nan;101300.13;6025410;23;20441;-90
2022/11/17 07:48:58;;;;;;;22.10;4.03;;;;;;;18.24;nan;101306.03;6049188;23;20415;-90
2022/11/17 07:51:26;;;;;;;21.00;3.80;;;;;;;18.29;nan;101313.63;6026225;23;20472;-90
2022/11/17 07:54:03;;;;;;;26.00;4.07;;;;;;;18.30;nan;101315.31;6026347;23;20410;-91
2022/11/17 07:56:40;;;;;;;22.10;3.60;;;;;;;18.31;nan;101322.53;6049246;23;20474;-90
2022/11/17 07:59:14;;;;;;;35.10;5.00;;;;;;;18.30;nan;101315.31;6072796;23;20493;-91
2022/11/17 08:01:47;;;;;;;22.33;4.77;;;;;;;18.25;nan;101318.81;6029608;23;20502;-90
2022/11/17 08:04:18;;;;;;;28.67;4.20;;;;;;;18.18;nan;101301.41;6026570;23;20486;-90
2022/11/17 08:06:46;;;;;;;25.80;4.27;;;;;;;18.29;nan;101317.25;6073250;23;20415;-90
2022/11/17 08:09:25;;;;;;;25.43;4.90;;;;;;;18.32;nan;101315.94;6048912;23;20406;-90
2022/11/17 08:11:57;;;;;;;19.13;3.90;;;;;;;18.41;nan;101317.34;6073088;23;20554;-91
2022/11/17 08:14:25;;;;;;;32.97;3.67;;;;;;;18.51;nan;101320.38;6049081;23;20407;-91
2022/11/17 08:16:53;;;;;;;27.20;3.00;;;;;;;18.61;nan;101317.13;6026274;23;20478;-90
2022/11/17 08:19:22;;;;;;;22.93;3.97;;;;;;;18.78;nan;101329.22;6026351;23;20395;-91
2022/11/17 08:21:57;;;;;;;32.63;4.60;;;;;;;18.90;nan;101337.59;6026618;23;20502;-90
2022/11/17 08:24:25;;;;;;;18.63;3.90;;;;;;;18.95;nan;101333.03;6026471;23;20391;-90
2022/11/17 08:26:53;;;;;;;20.53;3.00;;;;;;;18.98;nan;101345.59;6025712;23;20410;-90
2022/11/17 08:29:21;;;;;;;29.17;3.67;;;;;;;19.02;nan;101346.81;6026338;23;20490;-91
2022/11/17 08:31:50;;;;;;;23.17;3.07;;;;;;;19.03;nan;101350.44;6026698;23;20450;-90
2022/11/17 08:34:18;;;;;;;24.00;3.90;;;;;;;19.03;nan;101354.03;5936319;24;20421;-90
2022/11/17 08:36:46;;;;;;;15.70;3.03;;;;;;;19.01;nan;101349.81;5937077;23;20490;-91
2022/11/17 08:39:16;;;;;;;16.10;3.40;;;;;;;19.02;nan;101357.91;5957746;24;20414;-90
2022/11/17 08:41:47;;;;;;;17.87;3.10;;;;;;;19.04;nan;101361.28;5980994;24;20559;-90
2022/11/17 08:44:17;;;;;;;20.20;3.60;;;;;;;19.08;nan;101356.09;5981409;24;20489;-90
2022/11/17 08:46:45;;;;;;;18.60;4.03;;;;;;;19.10;nan;101354.78;5981531;24;20452;-90
2022/11/17 08:49:15;;;;;;;17.93;3.50;;;;;;;19.15;nan;101352.16;5958480;24;20425;-90
2022/11/17 08:51:44;;;;;;;17.67;4.00;;;;;;;19.22;nan;101355.69;5979754;23;20422;-90
2022/11/17 08:54:12;;;;;;;17.00;3.83;;;;;;;19.24;nan;101359.03;6025385;23;20793;-90
2022/11/17 08:56:41;;;;;;;15.97;2.90;;;;;;;19.28;nan;101351.94;6026881;23;20422;-91
2022/11/17 08:59:14;;;;;;;20.30;3.17;;;;;;;19.40;nan;101359.47;6050145;23;20414;-89
2022/11/17 09:01:48;;;;;;;22.53;3.50;;;;;;;19.43;nan;101368.16;6050428;23;20525;-89
2022/11/17 09:04:17;;;;;;;22.10;2.57;;;;;;;19.41;nan;101358.38;6050622;23;20423;-90
2022/11/17 09:06:45;;;;;;;36.13;6.00;;;;;;;19.44;nan;101360.66;6027400;23;20498;-90
2022/11/17 09:09:13;;;;;;;45.60;26.87;;;;;;;19.45;nan;101365.13;6027201;23;20728;-90
2022/11/17 09:11:46;;;;;;;38.60;19.23;;;;;;;19.48;nan;101368.28;6026215;23;20458;-90
2022/11/17 09:14:14;;;;;;;73.70;39.57;;;;;;;19.52;nan;101369.53;6026344;23;20418;-89
2022/11/17 09:16:44;;;;;;;80.13;39.00;;;;;;;19.69;nan;101374.38;6049910;23;20422;-89
2022/11/17 09:19:12;;;;;;;29.53;11.00;;;;;;;19.82;nan;101372.22;6074170;23;20490;-90
2022/11/17 09:21:40;;;;;;;24.10;6.03;;;;;;;19.91;nan;101373.56;6026002;23;20450;-90
2022/11/17 09:24:09;;;;;;;16.03;5.40;;;;;;;20.07;nan;101383.09;6026587;23;20936;-88
2022/11/17 09:26:40;;;;;;;37.13;19.00;;;;;;;20.18;nan;101381.41;6050638;23;20413;-89
2022/11/17 09:29:09;;;;;;;26.27;12.17;;;;;;;20.21;nan;101384.53;6051851;23;20419;-89
2022/11/17 09:31:37;;;;;;;26.40;13.40;;;;;;;20.25;nan;101384.91;6026013;23;20418;-89
2022/11/17 09:34:05;;;;;;;156.60;125.27;;;;;;;20.29;nan;101386.94;6049996;23;20422;-89
2022/11/17 09:36:35;;;;;;;39.33;23.73;;;;;;;20.30;nan;101388.66;6026318;23;20406;-90
2022/11/17 09:39:05;;;;;;;29.17;11.77;;;;;;;20.27;nan;101388.28;6050547;23;20534;-91
2022/11/17 09:41:45;;;;;;;16.40;4.53;;;;;;;20.31;nan;101389.50;6050482;23;20514;-90
2022/11/17 09:44:30;;;;;;;24.37;4.33;;;;;;;20.34;nan;101397.34;6050641;23;20505;-90
2022/11/17 09:47:19;;;;;;;16.17;3.90;;;;;;;20.33;nan;101387.31;6098527;23;20433;-89
2022/11/17 09:50:02;;;;;;;16.37;4.03;;;;;;;20.48;nan;101390.47;6061333;23;20398;-89
2022/11/17 09:52:41;;;;;;;17.77;5.03;;;;;;;20.53;nan;101387.81;6074018;23;20866;-90
2022/11/17 09:55:15;;;;;;;16.03;5.00;;;;;;;20.58;nan;101390.72;6050973;23;20532;-90
2022/11/17 09:57:59;;;;;;;21.13;5.90;;;;;;;20.49;nan;101375.50;6074115;23;20501;-90
2022/11/17 10:00:30;;;;;;;21.63;4.70;;;;;;;20.58;nan;101390.72;6030074;23;20399;-90
2022/11/17 10:03:00;;;;;;;22.60;8.07;;;;;;;20.60;nan;101391.28;6073974;23;20574;-90
2022/11/17 10:05:29;;;;;;;29.73;4.13;;;;;;;20.68;nan;101385.34;6029088;23;20478;-90
2022/11/17 10:08:05;;;;;;;31.17;13.20;;;;;;;20.83;nan;101395.09;6052231;23;20485;-89
2022/11/17 10:10:45;;;;;;;20.50;5.70;;;;;;;20.97;nan;101400.13;6074125;23;20415;-89
2022/11/17 10:13:28;;;;;;;16.40;3.20;;;;;;;21.03;nan;101401.09;6051322;23;20399;-89
2022/11/17 10:16:23;;;;;;;15.77;4.00;;;;;;;21.13;nan;101404.09;6051368;23;20427;-90
2022/11/17 10:18:51;;;;;;;19.83;3.30;;;;;;;21.16;nan;101403.59;6049348;23;20474;-89
2022/11/17 10:21:21;;;;;;;17.73;3.23;;;;;;;21.20;nan;101407.56;6027029;23;20942;-89
2022/11/17 10:23:58;;;;;;;23.87;4.00;;;;;;;21.25;nan;101402.13;6026598;23;20494;-88
2022/11/17 10:26:28;;;;;;;25.40;4.10;;;;;;;21.35;nan;101402.31;6050718;23;20964;-89
2022/11/17 10:29:11;;;;;;;14.20;3.10;;;;;;;21.38;nan;101407.38;6027232;23;20415;-90
2022/11/17 10:31:44;;;;;;;20.60;3.20;;;;;;;21.45;nan;101412.78;6026049;23;20807;-89
2022/11/17 10:34:33;;;;;;;16.00;3.03;;;;;;;21.48;nan;101397.53;6049123;23;20535;-88
2022/11/17 10:37:27;;;;;;;13.33;2.77;;;;;;;21.55;nan;101414.94;6070960;23;20585;-88
2022/11/17 10:40:20;;;;;;;18.50;2.90;;;;;;;21.58;nan;101401.34;6125298;23;20776;-92
2022/11/17 10:43:13;;;;;;;18.27;2.77;;;;;;;21.63;nan;101403.38;6101945;23;20453;-90
2022/11/17 10:45:53;;;;;;;20.23;3.10;;;;;;;21.70;nan;101416.03;6125974;23;20414;-93
2022/11/17 10:48:30;;;;;;;13.83;3.37;;;;;;;21.76;nan;101413.31;6099660;23;20500;-90
2022/11/17 10:51:08;;;;;;;18.63;2.60;;;;;;;21.83;nan;101425.16;6077883;23;20522;-91
2022/11/17 10:53:40;;;;;;;19.53;3.17;;;;;;;21.87;nan;101416.06;6081131;23;20469;-90
2022/11/17 10:56:20;;;;;;;21.37;2.70;;;;;;;21.86;nan;101411.56;5992940;23;20408;-90
2022/11/17 10:59:14;;;;;;;15.80;2.30;;;;;;;21.92;nan;101418.94;6015250;23;20911;-90
2022/11/17 11:01:43;;;;;;;18.50;2.60;;;;;;;21.81;nan;101403.13;6038550;23;20405;-90
2022/11/17 11:04:34;;;;;;;25.47;3.07;;;;;;;21.97;nan;101421.78;6015606;23;20435;-90
2022/11/17 11:07:08;;;;;;;18.23;2.57;;;;;;;22.00;nan;101421.31;5991515;23;20439;-90
2022/11/17 11:10:03;;;;;;;15.40;2.80;;;;;;;22.07;nan;101414.72;6014337;23;20471;-91
2022/11/17 11:13:08;;;;;;;20.60;2.77;;;;;;;22.11;nan;101413.13;6015280;23;20555;-90
2022/11/17 11:15:36;;;;;;;18.40;2.87;;;;;;;22.15;nan;101400.38;6014702;23;20471;-90
2022/11/17 11:18:14;;;;;;;27.07;3.67;;;;;;;22.21;nan;101402.13;6014701;23;20581;-90
2022/11/17 11:21:18;;;;;;;15.10;2.20;;;;;;;22.24;nan;101408.03;6029057;23;20418;-90
2022/11/17 11:24:09;;;;;;;25.10;4.03;;;;;;;22.33;nan;101408.44;6101157;23;20441;-90
2022/11/17 11:26:59;;;;;;;16.77;2.97;;;;;;;22.48;nan;101400.34;6101107;23;20418;-91
2022/11/17 11:30:05;;;;;;;12.60;2.77;;;;;;;22.45;nan;101389.69;6101722;23;20722;-91
2022/11/17 11:33:09;;;;;;;18.33;3.00;;;;;;;22.48;nan;101400.34;5962958;23;20421;-91
2022/11/17 11:35:56;;;;;;;17.20;2.43;;;;;;;22.52;nan;101390.34;6009923;23;20460;-91
2022/11/17 11:38:47;;;;;;;20.17;3.60;;;;;;;22.54;nan;101384.50;5986246;23;21019;-91
2022/11/17 11:41:43;;;;;;;13.87;2.57;;;;;;;22.59;nan;101374.28;5963753;23;20492;-90
2022/11/17 11:44:22;;;;;;;16.53;3.70;;;;;;;22.66;nan;101374.94;6009793;23;20424;-91
2022/11/17 11:47:06;;;;;;;13.50;3.37;;;;;;;22.65;nan;101362.13;5981382;24;20426;-90
2022/11/17 11:49:53;;;;;;;27.53;3.40;;;;;;;22.73;nan;101364.44;5939488;23;20414;-90
2022/11/17 11:52:34;;;;;;;25.60;3.20;;;;;;;22.84;nan;101356.25;5959109;24;20969;-91
2022/11/17 11:55:15;;;;;;;24.20;3.07;;;;;;;22.83;nan;101351.75;5928215;24;20511;-91
2022/11/17 11:57:59;;;;;;;22.50;3.07;;;;;;;22.98;nan;101349.16;5986856;23;20492;-91
2022/11/17 12:00:28;;;;;;;16.20;2.47;;;;;;;23.08;nan;101326.97;5943339;23;20793;-90
2022/11/17 12:03:17;;;;;;;14.43;2.50;;;;;;;23.23;nan;101341.06;5963513;23;20540;-90
2022/11/17 12:09:28;;;;;;;12.50;2.27;;;;;;;23.29;nan;101337.19;6034406;23;20495;-91
2022/11/17 12:12:05;;;;;;;12.93;2.30;;;;;;;23.18;nan;101312.28;6101559;23;20418;-90
2022/11/17 12:14:34;;;;;;;13.47;2.73;;;;;;;23.14;nan;101314.75;6079806;23;20488;-91
2022/11/17 12:17:12;;;;;;;15.00;2.90;;;;;;;23.36;nan;101329.47;6053936;23;20425;-91
2022/11/17 12:19:48;;;;;;;20.00;3.33;;;;;;;23.54;nan;101319.06;6079712;23;20468;-91
2022/11/17 12:22:29;;;;;;;18.20;3.27;;;;;;;23.55;nan;101315.16;6101782;23;20581;-91
2022/11/17 12:25:27;;;;;;;15.27;2.60;;;;;;;23.60;nan;101323.56;6079050;23;20481;-91
2022/11/17 12:27:56;;;;;;;11.93;2.50;;;;;;;23.47;nan;101310.03;6101669;23;20409;-90
2022/11/17 12:30:35;;;;;;;17.70;2.67;;;;;;;23.32;nan;101327.47;6077680;23;20410;-91
2022/11/17 12:33:07;;;;;;;17.27;2.67;;;;;;;23.06;nan;101313.28;6100234;23;20417;-91
2022/11/17 12:35:36;;;;;;;15.17;2.50;;;;;;;22.87;nan;101322.28;6054884;23;20889;-90
2022/11/17 12:38:15;;;;;;;16.87;2.60;;;;;;;22.72;nan;101315.34;6040413;23;20518;-90